createdAt,value
2019-05-23T00:00:44.516Z,100484.83
2019-05-23T00:03:15.886Z,100482.92
2019-05-23T00:05:47.708Z,100482.86
2019-05-23T00:08:18.943Z,100485.66
2019-05-23T00:10:56.757Z,100486.83
2019-05-23T00:13:46.171Z,100488.61
2019-05-23T00:16:18.321Z,100487.11
2019-05-23T00:18:48.988Z,100483.95
2019-05-23T00:21:19.840Z,100483.19
2019-05-23T00:23:50.421Z,100490.91
2019-05-23T00:26:20.064Z,100480.63
2019-05-23T00:28:50.264Z,100478.92
2019-05-23T00:31:24.287Z,100477.89
2019-05-23T00:33:56.578Z,100480.19
2019-05-23T00:36:29.055Z,100473.78
2019-05-23T00:38:59.190Z,100469.62
2019-05-23T00:41:31.463Z,100470.50
2019-05-23T00:44:01.672Z,100467.72
2019-05-23T00:46:31.904Z,100470.02
2019-05-23T00:49:02.981Z,100463.39
2019-05-23T00:51:34.457Z,100464.28
2019-05-23T00:54:04.594Z,100466.86
2019-05-23T00:56:35.986Z,100463.72
2019-05-23T00:59:08.120Z,100465.91
2019-05-23T01:01:38.151Z,100468.01
2019-05-23T01:04:08.284Z,100466.00
2019-05-23T01:06:38.607Z,100475.59
2019-05-23T01:09:08.895Z,100468.39
2019-05-23T01:11:39.299Z,100468.69
2019-05-23T01:14:10.082Z,100470.11
2019-05-23T01:16:42.477Z,100475.31
2019-05-23T01:19:12.696Z,100471.50
2019-05-23T01:21:59.498Z,100471.98
2019-05-23T01:24:31.053Z,100469.43
2019-05-23T01:27:01.980Z,100470.20
2019-05-23T01:29:37.794Z,100470.87
2019-05-23T01:32:19.336Z,100473.78
2019-05-23T01:34:49.505Z,100469.16
2019-05-23T01:37:19.821Z,100472.53
2019-05-23T01:39:49.702Z,100472.84
2019-05-23T01:42:20.112Z,100470.47
2019-05-23T01:44:50.218Z,100467.34
2019-05-23T01:47:20.989Z,100470.00
2019-05-23T01:49:51.408Z,100476.09
2019-05-23T01:52:21.692Z,100473.59
2019-05-23T01:54:54.259Z,100470.94
2019-05-23T01:57:24.775Z,100468.96
2019-05-23T02:00:08.982Z,100470.78
2019-05-23T02:02:28.619Z,100471.36
2019-05-23T02:04:59.312Z,100469.73
2019-05-23T02:07:30.661Z,100471.98
2019-05-23T02:10:00.325Z,100462.84
2019-05-23T02:12:30.996Z,100461.73
2019-05-23T02:15:01.899Z,100463.98
2019-05-23T02:17:33.102Z,100460.45
2019-05-23T02:20:05.395Z,100464.44
2019-05-23T02:22:36.361Z,100465.64
2019-05-23T02:25:10.203Z,100465.48
2019-05-23T02:27:40.513Z,100459.70
2019-05-23T02:30:32.328Z,100458.57
2019-05-23T02:32:45.349Z,100465.27
2019-05-23T02:35:17.758Z,100467.20
2019-05-23T02:37:50.946Z,100465.53
2019-05-23T02:40:35.682Z,100469.43
2019-05-23T02:43:10.081Z,100466.20
2019-05-23T02:45:45.338Z,100465.28
2019-05-23T02:48:17.800Z,100464.65
2019-05-23T02:51:07.052Z,100464.93
2019-05-23T02:53:40.407Z,100461.87
2019-05-23T02:56:14.642Z,100462.38
2019-05-23T02:58:55.792Z,100460.23
2019-05-23T03:01:58.186Z,100461.06
2019-05-23T03:04:33.194Z,100457.32
2019-05-23T03:07:03.950Z,100460.80
2019-05-23T03:09:36.851Z,100458.78
2019-05-23T03:12:09.199Z,100459.86
2019-05-23T03:14:42.142Z,100457.36
2019-05-23T03:17:16.310Z,100461.91
2019-05-23T03:19:56.860Z,100461.69
2019-05-23T03:22:34.407Z,100460.52
2019-05-23T03:25:31.442Z,100468.22
2019-05-23T03:28:02.940Z,100467.92
2019-05-23T03:30:35.625Z,100471.83
2019-05-23T03:33:06.060Z,100470.44
2019-05-23T03:35:43.584Z,100474.47
2019-05-23T03:38:13.968Z,100476.61
2019-05-23T03:40:44.134Z,100477.86
2019-05-23T03:43:13.837Z,100470.23
2019-05-23T03:45:45.770Z,100479.57
2019-05-23T03:48:15.943Z,100476.55
2019-05-23T03:50:46.926Z,100476.97
2019-05-23T03:53:17.021Z,100480.53
2019-05-23T03:55:48.122Z,100478.36
2019-05-23T03:58:18.863Z,100475.30
2019-05-23T04:00:50.068Z,100470.59
2019-05-23T04:03:20.776Z,100465.91
2019-05-23T04:05:50.987Z,100471.14
2019-05-23T04:08:20.972Z,100464.81
2019-05-23T04:10:51.919Z,100464.91
2019-05-23T04:13:22.136Z,100467.52
2019-05-23T04:15:52.446Z,100468.08
2019-05-23T04:18:22.017Z,100464.60
2019-05-23T04:20:51.737Z,100472.24
2019-05-23T04:23:21.497Z,100469.19
2019-05-23T04:25:51.798Z,100470.91
2019-05-23T04:28:21.717Z,100459.36
2019-05-23T04:30:51.447Z,100460.96
2019-05-23T04:33:21.371Z,100463.61
2019-05-23T04:35:53.832Z,100459.11
2019-05-23T04:38:26.327Z,100466.20
2019-05-23T04:40:56.288Z,100459.70
2019-05-23T04:43:25.925Z,100464.02
2019-05-23T04:45:55.976Z,100468.49
2019-05-23T04:48:25.610Z,100470.16
2019-05-23T04:50:59.726Z,100475.30
2019-05-23T04:53:27.161Z,100470.45
2019-05-23T04:55:56.940Z,100472.13
2019-05-23T04:58:26.699Z,100470.58
2019-05-23T05:00:56.426Z,100467.95
2019-05-23T05:03:26.520Z,100465.70
2019-05-23T05:05:56.573Z,100463.92
2019-05-23T05:08:26.409Z,100457.22
2019-05-23T05:10:56.323Z,100461.19
2019-05-23T05:13:28.108Z,100464.27
2019-05-23T05:15:58.263Z,100463.36
2019-05-23T05:18:30.095Z,100462.49
2019-05-23T05:20:59.680Z,100461.16
2019-05-23T05:23:29.340Z,100467.50
2019-05-23T05:25:59.403Z,100473.44
2019-05-23T05:28:29.028Z,100469.88
2019-05-23T05:30:58.709Z,100469.39
2019-05-23T05:33:28.441Z,100470.70
2019-05-23T05:35:58.181Z,100468.83
2019-05-23T05:38:29.245Z,100470.94
2019-05-23T05:40:59.693Z,100471.83
2019-05-23T05:43:29.703Z,100471.55
2019-05-23T05:45:59.459Z,100469.56
2019-05-23T05:48:30.557Z,100479.09
2019-05-23T05:51:00.282Z,100478.05
2019-05-23T05:53:31.274Z,100481.20
2019-05-23T05:56:01.101Z,100483.64
2019-05-23T05:58:30.884Z,100481.05
2019-05-23T06:01:02.858Z,100484.37
2019-05-23T06:03:32.919Z,100482.73
2019-05-23T06:06:04.343Z,100485.25
2019-05-23T06:08:35.963Z,100483.86
2019-05-23T06:11:06.165Z,100495.95
2019-05-23T06:13:36.009Z,100483.63
2019-05-23T06:16:05.918Z,100482.05
2019-05-23T06:18:35.746Z,100489.36
2019-05-23T06:21:06.276Z,100490.30
2019-05-23T06:23:36.470Z,100489.40
2019-05-23T06:26:06.232Z,100498.22
2019-05-23T06:28:35.976Z,100497.75
2019-05-23T06:31:06.787Z,100495.52
2019-05-23T06:33:36.822Z,100491.55
2019-05-23T06:36:06.729Z,100491.70
2019-05-23T06:38:37.124Z,100491.86
2019-05-23T06:41:08.034Z,100488.25
2019-05-23T06:43:39.324Z,100486.29
2019-05-23T06:46:09.432Z,100489.62
2019-05-23T06:48:39.007Z,100489.34
2019-05-23T06:51:09.099Z,100490.59
2019-05-23T06:53:38.672Z,100493.69
2019-05-23T06:56:11.027Z,100492.38
2019-05-23T06:58:41.213Z,100496.88
2019-05-23T07:01:11.221Z,100495.34
2019-05-23T07:03:43.402Z,100499.99
2019-05-23T07:06:16.235Z,100500.40
2019-05-23T07:08:46.075Z,100493.50
2019-05-23T07:11:19.749Z,100492.78
2019-05-23T07:13:49.342Z,100497.22
2019-05-23T07:16:18.914Z,100507.25
2019-05-23T07:18:48.620Z,100508.84
2019-05-23T07:21:18.635Z,100502.02
2019-05-23T07:23:48.260Z,100510.34
2019-05-23T07:26:17.839Z,100506.98
2019-05-23T07:28:48.223Z,100508.48
2019-05-23T07:31:17.863Z,100503.00
2019-05-23T07:34:01.065Z,100502.61
2019-05-23T07:36:18.810Z,100505.78
2019-05-23T07:38:48.378Z,100505.44
2019-05-23T07:41:18.576Z,100508.92
2019-05-23T07:43:48.659Z,100504.41
2019-05-23T07:46:18.414Z,100505.70
2019-05-23T07:48:48.187Z,100506.20
2019-05-23T07:51:17.911Z,100498.97
2019-05-23T07:53:49.846Z,100498.50
2019-05-23T07:56:22.040Z,100497.83
2019-05-23T07:58:54.474Z,100500.99
2019-05-23T08:01:28.348Z,100494.16
2019-05-23T08:03:59.616Z,100495.31
2019-05-23T08:06:29.274Z,100499.22
2019-05-23T08:08:59.746Z,100493.50
2019-05-23T08:11:29.330Z,100486.66
2019-05-23T08:13:59.035Z,100490.05
2019-05-23T08:16:28.597Z,100489.78
2019-05-23T08:18:58.262Z,100485.83
2019-05-23T08:21:28.059Z,100488.45
2019-05-23T08:23:57.854Z,100486.52
2019-05-23T08:26:27.976Z,100483.79
2019-05-23T08:29:24.044Z,100478.91
2019-05-23T08:31:29.705Z,100475.39
2019-05-23T08:34:00.036Z,100482.27
2019-05-23T08:36:29.935Z,100480.41
2019-05-23T08:39:00.967Z,100474.47
2019-05-23T08:41:30.806Z,100474.59
2019-05-23T08:44:01.214Z,100476.11
2019-05-23T08:46:31.072Z,100470.78
2019-05-23T08:49:01.046Z,100468.95
2019-05-23T08:51:30.795Z,100467.87
2019-05-23T08:54:00.612Z,100458.45
2019-05-23T08:56:31.043Z,100461.71
2019-05-23T08:59:01.486Z,100461.80
2019-05-23T09:01:31.422Z,100462.36
2019-05-23T09:04:02.038Z,100459.71
2019-05-23T09:06:33.555Z,100459.12
2019-05-23T09:09:27.709Z,100461.00
2019-05-23T09:11:38.164Z,100461.50
2019-05-23T09:14:09.162Z,100452.45
2019-05-23T09:16:39.380Z,100456.84
2019-05-23T09:19:09.503Z,100453.15
2019-05-23T09:21:39.141Z,100451.44
2019-05-23T09:24:11.006Z,100453.50
2019-05-23T09:26:40.570Z,100455.00
2019-05-23T09:29:10.388Z,100454.92
2019-05-23T09:31:40.314Z,100453.17
2019-05-23T09:34:09.890Z,100450.53
2019-05-23T09:36:39.543Z,100450.41
2019-05-23T09:39:12.368Z,100445.57
2019-05-23T09:41:42.023Z,100444.36
2019-05-23T09:44:13.045Z,100447.53
2019-05-23T09:46:44.169Z,100450.25
2019-05-23T09:49:13.840Z,100452.67
2019-05-23T09:51:46.360Z,100447.38
2019-05-23T09:54:16.907Z,100438.47
2019-05-23T09:56:46.828Z,100432.33
2019-05-23T09:59:16.411Z,100430.63
2019-05-23T10:01:46.079Z,100421.23
2019-05-23T10:04:15.701Z,100428.18
2019-05-23T10:06:46.296Z,100424.70
2019-05-23T10:09:16.120Z,100423.78
2019-05-23T10:11:45.838Z,100420.37
2019-05-23T10:14:17.536Z,100424.52
2019-05-23T10:16:47.396Z,100417.70
2019-05-23T10:19:19.112Z,100416.50
2019-05-23T10:21:48.770Z,100412.16
2019-05-23T10:24:18.493Z,100411.33
2019-05-23T10:26:48.628Z,100415.77
2019-05-23T10:29:18.237Z,100410.02
2019-05-23T10:31:47.798Z,100410.06
2019-05-23T10:34:18.407Z,100403.58
2019-05-23T10:36:47.981Z,100408.22
2019-05-23T10:39:20.059Z,100404.14
2019-05-23T10:41:50.168Z,100392.23
2019-05-23T10:44:19.750Z,100389.98
2019-05-23T10:46:49.405Z,100393.02
2019-05-23T10:49:19.065Z,100386.25
2019-05-23T10:51:48.732Z,100390.22
2019-05-23T10:54:19.422Z,100387.16
2019-05-23T10:56:49.140Z,100383.91
2019-05-23T10:59:18.698Z,100376.19
2019-05-23T11:01:48.535Z,100381.16
2019-05-23T11:04:18.166Z,100377.13
2019-05-23T11:06:47.833Z,100377.09
2019-05-23T11:09:17.676Z,100371.12
2019-05-23T11:11:47.579Z,100366.14
2019-05-23T11:14:17.488Z,100355.92
2019-05-23T11:16:47.364Z,100351.66
2019-05-23T11:19:17.276Z,100349.37
2019-05-23T11:21:47.594Z,100348.58
2019-05-23T11:24:18.307Z,100347.33
2019-05-23T11:26:47.935Z,100347.98
2019-05-23T11:29:17.670Z,100343.69
2019-05-23T11:31:49.298Z,100345.34
2019-05-23T11:34:19.192Z,100339.15
2019-05-23T11:36:50.494Z,100338.74
2019-05-23T11:39:21.977Z,100337.41
2019-05-23T11:41:51.618Z,100336.58
2019-05-23T11:44:21.280Z,100332.80
2019-05-23T11:46:52.893Z,100336.14
2019-05-23T11:49:22.542Z,100330.80
2019-05-23T11:51:52.293Z,100327.73
2019-05-23T11:54:23.667Z,100322.88
2019-05-23T11:56:53.581Z,100317.78
2019-05-23T11:59:23.290Z,100317.09
2019-05-23T12:01:55.058Z,100309.26
2019-05-23T12:04:24.906Z,100306.13
2019-05-23T12:06:58.935Z,100303.97
2019-05-23T12:09:29.021Z,100306.70
2019-05-23T12:11:58.727Z,100303.38
2019-05-23T12:14:28.337Z,100299.39
2019-05-23T12:16:58.619Z,100289.48
2019-05-23T12:19:28.331Z,100292.62
2019-05-23T12:21:58.064Z,100286.80
2019-05-23T12:24:27.791Z,100288.03
2019-05-23T12:26:57.488Z,100285.87
2019-05-23T12:29:27.132Z,100293.47
2019-05-23T12:31:57.379Z,100286.55
2019-05-23T12:34:27.043Z,100281.53
2019-05-23T12:37:17.266Z,100287.42
2019-05-23T12:39:28.157Z,100281.88
2019-05-23T12:41:57.788Z,100281.61
2019-05-23T12:44:29.071Z,100278.43
2019-05-23T12:46:59.804Z,100276.67
2019-05-23T12:49:36.675Z,100273.31
2019-05-23T12:52:07.429Z,100273.12
2019-05-23T12:54:37.018Z,100274.22
2019-05-23T12:57:07.037Z,100264.69
2019-05-23T12:59:38.781Z,100260.49
2019-05-23T13:02:10.074Z,100253.11
2019-05-23T13:04:40.469Z,100250.40
2019-05-23T13:07:10.809Z,100248.50
2019-05-23T13:09:40.679Z,100239.00
2019-05-23T13:12:10.325Z,100242.72
2019-05-23T13:14:40.044Z,100242.73
2019-05-23T13:17:10.706Z,100243.64
2019-05-23T13:19:40.291Z,100237.06
2019-05-23T13:22:11.462Z,100241.68
2019-05-23T13:24:52.205Z,100239.74
2019-05-23T13:27:13.438Z,100232.77
2019-05-23T13:29:43.013Z,100224.19
2019-05-23T13:32:12.714Z,100229.34
2019-05-23T13:34:42.363Z,100226.11
2019-05-23T13:37:16.771Z,100217.98
2019-05-23T13:39:45.290Z,100220.53
2019-05-23T13:42:14.942Z,100218.00
2019-05-23T13:44:44.769Z,100227.70
2019-05-23T13:47:14.620Z,100210.19
2019-05-23T13:49:44.816Z,100214.44
2019-05-23T13:52:14.474Z,100219.72
2019-05-23T13:54:44.046Z,100223.42
2019-05-23T13:57:16.660Z,100213.23
2019-05-23T13:59:47.763Z,100210.52
2019-05-23T14:02:17.406Z,100206.73
2019-05-23T14:04:47.544Z,100199.38
2019-05-23T14:07:18.962Z,100190.72
2019-05-23T14:09:48.751Z,100188.70
2019-05-23T14:12:21.108Z,100190.77
2019-05-23T14:14:50.734Z,100184.86
2019-05-23T14:17:24.026Z,100184.52
2019-05-23T14:19:53.810Z,100183.20
2019-05-23T14:22:23.582Z,100180.50
2019-05-23T14:24:53.712Z,100185.85
2019-05-23T14:27:41.200Z,100179.30
2019-05-23T14:30:28.180Z,100176.89
2019-05-23T14:33:00.151Z,100175.95
2019-05-23T14:35:43.576Z,100176.52
2019-05-23T14:38:29.636Z,100164.00
2019-05-23T14:40:48.647Z,100166.95
2019-05-23T14:43:25.736Z,100180.45
2019-05-23T14:45:57.093Z,100179.64
2019-05-23T14:48:31.638Z,100172.97
2019-05-23T14:51:20.419Z,100166.44
2019-05-23T14:53:54.847Z,100171.41
2019-05-23T14:56:26.136Z,100171.27
2019-05-23T14:58:55.683Z,100168.20
2019-05-23T15:01:28.671Z,100167.77
2019-05-23T15:03:58.264Z,100169.41
2019-05-23T15:06:28.061Z,100166.56
2019-05-23T15:08:57.967Z,100158.68
2019-05-23T15:11:28.016Z,100165.57
2019-05-23T15:13:57.864Z,100153.65
2019-05-23T15:16:27.711Z,100150.39
2019-05-23T15:18:58.964Z,100144.29
2019-05-23T15:21:28.483Z,100141.33
2019-05-23T15:23:58.132Z,100143.59
2019-05-23T15:26:27.872Z,100144.81
2019-05-23T15:28:57.512Z,100141.52
2019-05-23T15:31:27.136Z,100137.72
2019-05-23T15:33:56.799Z,100136.64
2019-05-23T15:36:26.415Z,100122.08
2019-05-23T15:39:08.838Z,100128.86
2019-05-23T15:41:27.676Z,100137.88
2019-05-23T15:43:57.294Z,100136.23
2019-05-23T15:46:26.914Z,100141.44
2019-05-23T15:48:56.540Z,100134.48
2019-05-23T15:51:28.294Z,100141.43
2019-05-23T15:54:01.969Z,100143.58
2019-05-23T15:56:41.612Z,100137.42
2019-05-23T15:59:15.610Z,100140.65
2019-05-23T16:02:02.681Z,100127.09
2019-05-23T16:04:32.838Z,100126.88
2019-05-23T16:07:02.380Z,100128.70
2019-05-23T16:09:32.230Z,100126.71
2019-05-23T16:12:02.127Z,100124.68
2019-05-23T16:14:31.907Z,100118.54
2019-05-23T16:17:01.492Z,100121.82
2019-05-23T16:19:32.602Z,100120.36
2019-05-23T16:22:02.584Z,100113.09
2019-05-23T16:24:32.213Z,100111.90
2019-05-23T16:27:01.966Z,100118.80
2019-05-23T16:29:33.454Z,100114.06
2019-05-23T16:32:05.859Z,100112.59
2019-05-23T16:34:35.418Z,100123.22
2019-05-23T16:37:05.129Z,100112.23
2019-05-23T16:39:46.639Z,100107.52
2019-05-23T16:42:07.770Z,100110.57
2019-05-23T16:44:37.414Z,100112.24
2019-05-23T16:47:06.987Z,100105.00
2019-05-23T16:49:36.825Z,100103.89
2019-05-23T16:52:07.311Z,100101.20
2019-05-23T16:54:38.640Z,100102.78
2019-05-23T16:57:12.447Z,100101.35
2019-05-23T17:00:00.259Z,100103.86
2019-05-23T17:02:34.252Z,100097.00
2019-05-23T17:05:16.266Z,100099.77
2019-05-23T17:08:03.923Z,100105.89
2019-05-23T17:10:36.801Z,100113.70
2019-05-23T17:13:13.987Z,100113.08
2019-05-23T17:15:52.298Z,100111.53
2019-05-23T17:18:33.091Z,100112.18
2019-05-23T17:21:20.269Z,100107.31
2019-05-23T17:24:03.326Z,100100.49
2019-05-23T17:26:34.615Z,100104.25
2019-05-23T17:29:06.589Z,100104.83
2019-05-23T17:31:40.965Z,100096.67
2019-05-23T17:34:10.871Z,100092.69
2019-05-23T17:36:40.945Z,100095.72
2019-05-23T17:39:12.494Z,100094.66
2019-05-23T17:41:42.235Z,100091.27
2019-05-23T17:44:13.140Z,100094.20
2019-05-23T17:46:42.799Z,100086.84
2019-05-23T17:49:12.435Z,100091.23
2019-05-23T17:51:42.085Z,100092.11
2019-05-23T17:54:11.992Z,100100.14
2019-05-23T17:56:41.700Z,100087.48
2019-05-23T17:59:11.411Z,100086.83
2019-05-23T18:01:41.286Z,100088.80
2019-05-23T18:04:11.299Z,100093.04
2019-05-23T18:06:41.637Z,100093.16
2019-05-23T18:09:11.491Z,100089.24
2019-05-23T18:11:41.292Z,100100.37
2019-05-23T18:14:12.244Z,100093.50
2019-05-23T18:16:42.129Z,100095.17
2019-05-23T18:19:12.008Z,100096.30
2019-05-23T18:21:44.550Z,100088.84
2019-05-23T18:24:17.549Z,100092.64
2019-05-23T18:26:47.111Z,100090.45
2019-05-23T18:29:17.433Z,100091.58
2019-05-23T18:31:48.153Z,100087.91
2019-05-23T18:34:19.988Z,100094.09
2019-05-23T18:36:50.354Z,100092.40
2019-05-23T18:39:20.190Z,100094.42
2019-05-23T18:41:50.330Z,100094.55
2019-05-23T18:44:20.520Z,100094.33
2019-05-23T18:46:51.711Z,100097.14
2019-05-23T18:49:21.547Z,100098.78
2019-05-23T18:51:52.217Z,100101.29
2019-05-23T18:54:21.927Z,100102.13
2019-05-23T18:56:51.512Z,100104.66
2019-05-23T18:59:21.238Z,100103.73
2019-05-23T19:01:52.204Z,100105.05
2019-05-23T19:04:21.782Z,100106.41
2019-05-23T19:06:52.305Z,100114.15
2019-05-23T19:09:22.681Z,100111.87
2019-05-23T19:11:52.307Z,100108.97
2019-05-23T19:14:22.033Z,100113.50
2019-05-23T19:16:52.275Z,100114.66
2019-05-23T19:19:22.584Z,100112.26
2019-05-23T19:21:52.502Z,100116.04
2019-05-23T19:24:22.277Z,100122.69
2019-05-23T19:26:53.690Z,100112.02
2019-05-23T19:29:23.394Z,100117.92
2019-05-23T19:31:53.043Z,100108.17
2019-05-23T19:34:22.609Z,100108.50
2019-05-23T19:36:52.705Z,100105.95
2019-05-23T19:39:23.788Z,100108.33
2019-05-23T19:41:53.651Z,100109.33
2019-05-23T19:44:23.225Z,100109.88
2019-05-23T19:46:52.941Z,100114.59
2019-05-23T19:49:26.858Z,100118.46
2019-05-23T19:51:54.467Z,100119.30
2019-05-23T19:54:24.180Z,100122.46
2019-05-23T19:56:53.808Z,100123.00
2019-05-23T19:59:23.563Z,100114.94
2019-05-23T20:02:04.640Z,100118.53
2019-05-23T20:04:38.814Z,100118.53
2019-05-23T20:07:09.088Z,100119.08
2019-05-23T20:09:38.802Z,100118.00
2019-05-23T20:12:09.212Z,100111.28
2019-05-23T20:14:38.853Z,100115.16
2019-05-23T20:17:08.494Z,100111.69
2019-05-23T20:19:38.132Z,100117.50
2019-05-23T20:22:08.071Z,100117.46
2019-05-23T20:24:37.704Z,100113.67
2019-05-23T20:27:07.265Z,100108.56
2019-05-23T20:29:36.842Z,100108.61
2019-05-23T20:32:07.606Z,100108.66
2019-05-23T20:34:38.543Z,100107.69
2019-05-23T20:37:09.248Z,100106.52
2019-05-23T20:39:38.838Z,100107.63
2019-05-23T20:42:11.811Z,100110.05
2019-05-23T20:44:39.807Z,100095.44
2019-05-23T20:47:09.806Z,100096.20
2019-05-23T20:49:39.439Z,100098.63
2019-05-23T20:52:09.148Z,100099.16
2019-05-23T20:54:38.885Z,100099.61
2019-05-23T20:57:08.819Z,100100.86
2019-05-23T20:59:38.476Z,100097.98
2019-05-23T21:02:08.207Z,100098.66
2019-05-23T21:04:37.809Z,100098.11
2019-05-23T21:07:07.449Z,100099.48
2019-05-23T21:09:37.082Z,100100.34
2019-05-23T21:12:07.801Z,100100.92
2019-05-23T21:14:37.447Z,100098.25
2019-05-23T21:17:08.084Z,100099.34
2019-05-23T21:19:37.731Z,100112.20
2019-05-23T21:22:07.319Z,100106.11
2019-05-23T21:24:36.957Z,100108.52
2019-05-23T21:27:06.603Z,100107.09
2019-05-23T21:29:36.332Z,100108.45
2019-05-23T21:32:06.070Z,100108.84
2019-05-23T21:34:35.729Z,100113.27
2019-05-23T21:37:05.831Z,100114.05
2019-05-23T21:39:35.584Z,100109.03
2019-05-23T21:42:05.356Z,100103.66
2019-05-23T21:44:34.941Z,100102.00
2019-05-23T21:47:04.578Z,100108.33
2019-05-23T21:49:34.220Z,100105.71
2019-05-23T21:52:05.169Z,100109.42
2019-05-23T21:54:34.744Z,100109.25
2019-05-23T21:57:04.395Z,100105.61
2019-05-23T21:59:34.041Z,100109.38
2019-05-23T22:02:17.436Z,100111.11
2019-05-23T22:04:54.692Z,100104.08
2019-05-23T22:07:24.335Z,100101.34
2019-05-23T22:09:54.142Z,100100.55
2019-05-23T22:12:23.946Z,100097.56
2019-05-23T22:14:53.647Z,100097.13
2019-05-23T22:17:24.937Z,100095.11
2019-05-23T22:19:54.575Z,100095.50
2019-05-23T22:22:24.394Z,100093.66
2019-05-23T22:24:55.052Z,100091.43
2019-05-23T22:27:24.650Z,100094.50
2019-05-23T22:29:54.375Z,100093.30
2019-05-23T22:32:25.650Z,100085.52
2019-05-23T22:34:56.928Z,100093.55
2019-05-23T22:37:27.516Z,100092.75
2019-05-23T22:39:57.237Z,100089.98
2019-05-23T22:42:27.549Z,100089.88
2019-05-23T22:44:58.079Z,100088.20
2019-05-23T22:47:27.716Z,100091.34
2019-05-23T22:49:57.296Z,100091.86
2019-05-23T22:52:26.867Z,100095.39
2019-05-23T22:54:56.475Z,100089.40
2019-05-23T22:57:28.479Z,100091.06
2019-05-23T22:59:57.953Z,100085.41
2019-05-23T23:02:27.737Z,100091.03
2019-05-23T23:04:57.316Z,100086.36
2019-05-23T23:07:26.973Z,100088.85
2019-05-23T23:09:56.603Z,100090.30
2019-05-23T23:12:26.611Z,100090.71
2019-05-23T23:14:56.259Z,100092.70
2019-05-23T23:17:25.996Z,100093.31
2019-05-23T23:19:55.570Z,100083.46
2019-05-23T23:22:25.206Z,100089.56
2019-05-23T23:24:54.778Z,100084.02
2019-05-23T23:27:24.409Z,100085.28
2019-05-23T23:29:53.988Z,100084.17
2019-05-23T23:32:23.723Z,100076.34
2019-05-23T23:34:53.447Z,100074.69
2019-05-23T23:37:23.090Z,100069.23
2019-05-23T23:39:52.667Z,100068.08
2019-05-23T23:42:22.375Z,100070.94
2019-05-23T23:44:51.103Z,100068.70
2019-05-23T23:47:38.138Z,100068.94
2019-05-23T23:50:26.975Z,100069.46
2019-05-23T23:53:13.867Z,100072.51
2019-05-23T23:56:01.200Z,100069.65
2019-05-23T23:58:30.001Z,100073.42
